sensor_id;sensor_type;location;lat;lon;timestamp;temperature;humidity
59703;DHT22;45570;48.782;8.332;2023-02-28T00:01:49;-0.10;99.90
59703;DHT22;45570;48.782;8.332;2023-02-28T00:04:18;-0.10;99.90
59703;DHT22;45570;48.782;8.332;2023-02-28T00:06:47;-0.20;99.90
59703;DHT22;45570;48.782;8.332;2023-02-28T00:09:15;-0.20;99.90
59703;DHT22;45570;48.782;8.332;2023-02-28T00:11:44;-0.30;99.90
59703;DHT22;45570;48.782;8.332;2023-02-28T00:14:13;-0.40;99.90
59703;DHT22;45570;48.782;8.332;2023-02-28T00:16:43;-0.50;99.90
59703;DHT22;45570;48.782;8.332;2023-02-28T00:19:11;-0.60;99.90
59703;DHT22;45570;48.782;8.332;2023-02-28T00:21:40;-0.60;99.90
59703;DHT22;45570;48.782;8.332;2023-02-28T00:24:10;-0.60;99.90
59703;DHT22;45570;48.782;8.332;2023-02-28T00:26:38;-0.50;99.90
59703;DHT22;45570;48.782;8.332;2023-02-28T00:29:07;-0.60;99.90
59703;DHT22;45570;48.782;8.332;2023-02-28T00:31:36;-0.50;99.90
59703;DHT22;45570;48.782;8.332;2023-02-28T00:34:06;-0.50;99.90
59703;DHT22;45570;48.782;8.332;2023-02-28T00:36:35;-0.50;99.90
59703;DHT22;45570;48.782;8.332;2023-02-28T00:39:04;-0.50;99.90
59703;DHT22;45570;48.782;8.332;2023-02-28T00:41:32;-0.50;99.90
59703;DHT22;45570;48.782;8.332;2023-02-28T00:44:01;-0.40;99.90
59703;DHT22;45570;48.782;8.332;2023-02-28T00:46:31;-0.30;99.90
59703;DHT22;45570;48.782;8.332;2023-02-28T00:49:00;-0.10;99.90
59703;DHT22;45570;48.782;8.332;2023-02-28T00:51:30;-0.10;99.90
59703;DHT22;45570;48.782;8.332;2023-02-28T00:53:59;-0.20;99.90
59703;DHT22;45570;48.782;8.332;2023-02-28T00:56:27;-0.30;99.90
59703;DHT22;45570;48.782;8.332;2023-02-28T00:58:56;-0.50;99.90
59703;DHT22;45570;48.782;8.332;2023-02-28T01:01:24;-0.60;99.90
59703;DHT22;45570;48.782;8.332;2023-02-28T01:03:54;-0.70;99.90
59703;DHT22;45570;48.782;8.332;2023-02-28T01:06:22;-0.70;99.90
59703;DHT22;45570;48.782;8.332;2023-02-28T01:08:53;-0.80;99.90
59703;DHT22;45570;48.782;8.332;2023-02-28T01:11:22;-0.80;99.90
59703;DHT22;45570;48.782;8.332;2023-02-28T01:13:52;-0.70;99.90
59703;DHT22;45570;48.782;8.332;2023-02-28T01:16:21;-0.70;99.90
59703;DHT22;45570;48.782;8.332;2023-02-28T01:18:49;-0.60;99.90
59703;DHT22;45570;48.782;8.332;2023-02-28T01:21:20;-0.70;99.90
59703;DHT22;45570;48.782;8.332;2023-02-28T01:23:49;-0.60;99.90
59703;DHT22;45570;48.782;8.332;2023-02-28T01:26:22;-0.70;99.90
59703;DHT22;45570;48.782;8.332;2023-02-28T01:28:51;-0.90;99.90
59703;DHT22;45570;48.782;8.332;2023-02-28T01:31:21;-0.90;99.90
59703;DHT22;45570;48.782;8.332;2023-02-28T01:33:49;-0.90;99.90
59703;DHT22;45570;48.782;8.332;2023-02-28T01:36:20;-0.90;99.90
59703;DHT22;45570;48.782;8.332;2023-02-28T01:38:49;-0.90;99.90
59703;DHT22;45570;48.782;8.332;2023-02-28T01:41:23;-0.90;99.90
59703;DHT22;45570;48.782;8.332;2023-02-28T01:43:56;-0.90;99.90
59703;DHT22;45570;48.782;8.332;2023-02-28T01:46:25;-0.90;99.90
59703;DHT22;45570;48.782;8.332;2023-02-28T01:48:58;-1.00;99.90
59703;DHT22;45570;48.782;8.332;2023-02-28T01:51:33;-0.80;99.90
59703;DHT22;45570;48.782;8.332;2023-02-28T01:54:06;-0.80;99.90
59703;DHT22;45570;48.782;8.332;2023-02-28T01:56:45;-0.70;99.90
59703;DHT22;45570;48.782;8.332;2023-02-28T01:59:20;-0.70;99.90
59703;DHT22;45570;48.782;8.332;2023-02-28T02:01:50;-0.80;99.90
59703;DHT22;45570;48.782;8.332;2023-02-28T02:04:20;-0.90;99.90
59703;DHT22;45570;48.782;8.332;2023-02-28T02:06:50;-0.70;99.90
59703;DHT22;45570;48.782;8.332;2023-02-28T02:09:18;-0.80;99.90
59703;DHT22;45570;48.782;8.332;2023-02-28T02:11:48;-0.80;99.90
59703;DHT22;45570;48.782;8.332;2023-02-28T02:14:35;-0.70;99.90
59703;DHT22;45570;48.782;8.332;2023-02-28T02:17:18;-0.80;99.90
59703;DHT22;45570;48.782;8.332;2023-02-28T02:23:41;-0.70;99.90
59703;DHT22;45570;48.782;8.332;2023-02-28T02:29:41;-0.80;99.90
59703;DHT22;45570;48.782;8.332;2023-02-28T02:32:19;-0.70;99.90
59703;DHT22;45570;48.782;8.332;2023-02-28T02:34:57;-0.80;99.90
59703;DHT22;45570;48.782;8.332;2023-02-28T02:37:31;-0.80;99.90
59703;DHT22;45570;48.782;8.332;2023-02-28T02:40:08;-0.90;99.90
59703;DHT22;45570;48.782;8.332;2023-02-28T02:42:44;-0.90;99.90
59703;DHT22;45570;48.782;8.332;2023-02-28T02:45:17;-0.90;99.90
59703;DHT22;45570;48.782;8.332;2023-02-28T02:47:48;-0.90;99.90
59703;DHT22;45570;48.782;8.332;2023-02-28T02:50:22;-0.90;99.90
59703;DHT22;45570;48.782;8.332;2023-02-28T02:52:56;-0.90;99.90
59703;DHT22;45570;48.782;8.332;2023-02-28T02:55:28;-0.90;99.90
59703;DHT22;45570;48.782;8.332;2023-02-28T02:58:00;-1.00;99.90
59703;DHT22;45570;48.782;8.332;2023-02-28T03:00:33;-1.00;99.90
59703;DHT22;45570;48.782;8.332;2023-02-28T03:03:03;-1.00;99.90
59703;DHT22;45570;48.782;8.332;2023-02-28T03:05:41;-0.90;99.90
59703;DHT22;45570;48.782;8.332;2023-02-28T03:08:10;-0.90;99.90
59703;DHT22;45570;48.782;8.332;2023-02-28T03:10:41;-1.00;99.90
59703;DHT22;45570;48.782;8.332;2023-02-28T03:16:34;-1.20;99.90
59703;DHT22;45570;48.782;8.332;2023-02-28T03:19:19;-1.30;99.90
59703;DHT22;45570;48.782;8.332;2023-02-28T03:22:01;-1.20;99.90
59703;DHT22;45570;48.782;8.332;2023-02-28T03:24:40;-1.20;99.90
59703;DHT22;45570;48.782;8.332;2023-02-28T03:27:14;-1.20;99.90
59703;DHT22;45570;48.782;8.332;2023-02-28T03:29:47;-1.20;99.90
59703;DHT22;45570;48.782;8.332;2023-02-28T03:32:21;-1.20;99.90
59703;DHT22;45570;48.782;8.332;2023-02-28T03:34:55;-1.20;99.90
59703;DHT22;45570;48.782;8.332;2023-02-28T03:37:27;-1.20;99.90
59703;DHT22;45570;48.782;8.332;2023-02-28T03:40:01;-1.30;99.90
59703;DHT22;45570;48.782;8.332;2023-02-28T03:42:35;-1.30;99.90
59703;DHT22;45570;48.782;8.332;2023-02-28T03:45:10;-1.30;99.90
59703;DHT22;45570;48.782;8.332;2023-02-28T03:47:44;-1.30;99.90
59703;DHT22;45570;48.782;8.332;2023-02-28T03:50:18;-1.30;99.90
59703;DHT22;45570;48.782;8.332;2023-02-28T03:52:54;-1.30;99.90
59703;DHT22;45570;48.782;8.332;2023-02-28T03:55:30;-1.30;99.90
59703;DHT22;45570;48.782;8.332;2023-02-28T03:58:06;-1.30;99.90
59703;DHT22;45570;48.782;8.332;2023-02-28T04:00:40;-1.30;99.90
59703;DHT22;45570;48.782;8.332;2023-02-28T04:03:11;-1.30;99.90
59703;DHT22;45570;48.782;8.332;2023-02-28T04:05:52;-1.20;99.90
59703;DHT22;45570;48.782;8.332;2023-02-28T04:08:22;-1.20;99.90
59703;DHT22;45570;48.782;8.332;2023-02-28T04:10:55;-1.20;99.90
59703;DHT22;45570;48.782;8.332;2023-02-28T04:13:25;-1.20;99.90
59703;DHT22;45570;48.782;8.332;2023-02-28T04:15:53;-1.20;99.90
59703;DHT22;45570;48.782;8.332;2023-02-28T04:18:22;-1.30;99.90
59703;DHT22;45570;48.782;8.332;2023-02-28T04:20:50;-1.30;99.90
59703;DHT22;45570;48.782;8.332;2023-02-28T04:23:19;-1.30;99.90
59703;DHT22;45570;48.782;8.332;2023-02-28T04:25:49;-1.30;99.90
59703;DHT22;45570;48.782;8.332;2023-02-28T04:28:18;-1.30;99.90
59703;DHT22;45570;48.782;8.332;2023-02-28T04:30:46;-1.30;99.90
59703;DHT22;45570;48.782;8.332;2023-02-28T04:33:15;-1.30;99.90
59703;DHT22;45570;48.782;8.332;2023-02-28T04:35:43;-1.30;99.90
59703;DHT22;45570;48.782;8.332;2023-02-28T04:38:12;-1.20;99.90
59703;DHT22;45570;48.782;8.332;2023-02-28T04:40:40;-1.20;99.90
59703;DHT22;45570;48.782;8.332;2023-02-28T04:43:10;-1.10;99.90
59703;DHT22;45570;48.782;8.332;2023-02-28T04:45:39;-1.10;99.90
59703;DHT22;45570;48.782;8.332;2023-02-28T04:48:07;-1.10;99.90
59703;DHT22;45570;48.782;8.332;2023-02-28T04:50:36;-1.10;99.90
59703;DHT22;45570;48.782;8.332;2023-02-28T04:53:04;-1.10;99.90
59703;DHT22;45570;48.782;8.332;2023-02-28T04:55:33;-1.10;99.90
59703;DHT22;45570;48.782;8.332;2023-02-28T04:58:02;-1.10;99.90
59703;DHT22;45570;48.782;8.332;2023-02-28T05:00:32;-1.10;99.90
59703;DHT22;45570;48.782;8.332;2023-02-28T05:03:00;-1.10;99.90
59703;DHT22;45570;48.782;8.332;2023-02-28T05:05:29;-1.20;99.90
59703;DHT22;45570;48.782;8.332;2023-02-28T05:07:57;-1.10;99.90
59703;DHT22;45570;48.782;8.332;2023-02-28T05:10:27;-1.10;99.90
59703;DHT22;45570;48.782;8.332;2023-02-28T05:12:55;-1.10;99.90
59703;DHT22;45570;48.782;8.332;2023-02-28T05:15:24;-1.10;99.90
59703;DHT22;45570;48.782;8.332;2023-02-28T05:17:54;-1.10;99.90
59703;DHT22;45570;48.782;8.332;2023-02-28T05:20:22;-1.10;99.90
59703;DHT22;45570;48.782;8.332;2023-02-28T05:22:51;-1.10;99.90
59703;DHT22;45570;48.782;8.332;2023-02-28T05:25:21;-1.10;99.90
59703;DHT22;45570;48.782;8.332;2023-02-28T05:27:50;-1.10;99.90
59703;DHT22;45570;48.782;8.332;2023-02-28T05:30:18;-1.10;99.90
59703;DHT22;45570;48.782;8.332;2023-02-28T05:32:50;-1.00;99.90
59703;DHT22;45570;48.782;8.332;2023-02-28T05:35:20;-1.00;99.90
59703;DHT22;45570;48.782;8.332;2023-02-28T05:37:49;-0.90;99.90
59703;DHT22;45570;48.782;8.332;2023-02-28T05:40:18;-1.00;99.90
59703;DHT22;45570;48.782;8.332;2023-02-28T05:42:47;-1.00;99.90
59703;DHT22;45570;48.782;8.332;2023-02-28T05:45:16;-1.00;99.90
59703;DHT22;45570;48.782;8.332;2023-02-28T05:47:44;-1.00;99.90
59703;DHT22;45570;48.782;8.332;2023-02-28T05:50:13;-0.90;99.90
59703;DHT22;45570;48.782;8.332;2023-02-28T05:52:43;-0.90;99.90
59703;DHT22;45570;48.782;8.332;2023-02-28T05:55:11;-0.90;99.90
59703;DHT22;45570;48.782;8.332;2023-02-28T05:57:40;-0.90;99.90
59703;DHT22;45570;48.782;8.332;2023-02-28T06:00:10;-0.90;99.90
59703;DHT22;45570;48.782;8.332;2023-02-28T06:02:39;-0.90;99.90
59703;DHT22;45570;48.782;8.332;2023-02-28T06:05:13;-0.80;99.90
59703;DHT22;45570;48.782;8.332;2023-02-28T06:07:43;-0.90;99.90
59703;DHT22;45570;48.782;8.332;2023-02-28T06:10:12;-0.90;99.90
59703;DHT22;45570;48.782;8.332;2023-02-28T06:12:41;-0.80;99.90
59703;DHT22;45570;48.782;8.332;2023-02-28T06:15:12;-0.80;99.90
59703;DHT22;45570;48.782;8.332;2023-02-28T06:17:41;-0.70;99.90
59703;DHT22;45570;48.782;8.332;2023-02-28T06:20:11;-0.60;99.90
59703;DHT22;45570;48.782;8.332;2023-02-28T06:22:40;-0.60;99.90
59703;DHT22;45570;48.782;8.332;2023-02-28T06:25:11;-0.50;99.90
59703;DHT22;45570;48.782;8.332;2023-02-28T06:27:39;-0.60;99.90
59703;DHT22;45570;48.782;8.332;2023-02-28T06:30:09;-0.60;99.90
59703;DHT22;45570;48.782;8.332;2023-02-28T06:32:37;-0.60;99.90
59703;DHT22;45570;48.782;8.332;2023-02-28T06:35:07;-0.60;99.90
59703;DHT22;45570;48.782;8.332;2023-02-28T06:37:35;-0.60;99.90
59703;DHT22;45570;48.782;8.332;2023-02-28T06:40:08;-0.60;99.90
59703;DHT22;45570;48.782;8.332;2023-02-28T06:42:39;-0.70;99.90
59703;DHT22;45570;48.782;8.332;2023-02-28T06:45:08;-0.60;99.90
59703;DHT22;45570;48.782;8.332;2023-02-28T06:47:38;-0.60;99.90
59703;DHT22;45570;48.782;8.332;2023-02-28T06:50:08;-0.50;99.90
59703;DHT22;45570;48.782;8.332;2023-02-28T06:52:37;-0.50;99.90
59703;DHT22;45570;48.782;8.332;2023-02-28T06:55:06;-0.40;99.90
59703;DHT22;45570;48.782;8.332;2023-02-28T06:57:36;-0.40;99.90
59703;DHT22;45570;48.782;8.332;2023-02-28T07:00:08;-0.40;99.90
59703;DHT22;45570;48.782;8.332;2023-02-28T07:02:37;-0.40;99.90
59703;DHT22;45570;48.782;8.332;2023-02-28T07:05:06;-0.40;99.90
59703;DHT22;45570;48.782;8.332;2023-02-28T07:07:35;-0.30;99.90
59703;DHT22;45570;48.782;8.332;2023-02-28T07:10:06;-0.30;99.90
59703;DHT22;45570;48.782;8.332;2023-02-28T07:12:34;-0.30;99.90
59703;DHT22;45570;48.782;8.332;2023-02-28T07:15:07;-0.20;99.90
59703;DHT22;45570;48.782;8.332;2023-02-28T07:17:35;-0.10;99.90
59703;DHT22;45570;48.782;8.332;2023-02-28T07:20:04;0.00;99.90
59703;DHT22;45570;48.782;8.332;2023-02-28T07:22:33;-0.20;99.90
59703;DHT22;45570;48.782;8.332;2023-02-28T07:25:02;-0.20;99.90
59703;DHT22;45570;48.782;8.332;2023-02-28T07:27:30;-0.20;99.90
59703;DHT22;45570;48.782;8.332;2023-02-28T07:29:59;-0.10;99.90
59703;DHT22;45570;48.782;8.332;2023-02-28T07:32:32;-0.10;99.90
59703;DHT22;45570;48.782;8.332;2023-02-28T07:35:00;-0.10;99.90
59703;DHT22;45570;48.782;8.332;2023-02-28T07:37:28;-0.10;99.90
59703;DHT22;45570;48.782;8.332;2023-02-28T07:39:58;-0.10;99.90
59703;DHT22;45570;48.782;8.332;2023-02-28T07:42:26;-0.10;99.90
59703;DHT22;45570;48.782;8.332;2023-02-28T07:44:55;-0.10;99.90
59703;DHT22;45570;48.782;8.332;2023-02-28T07:47:23;-0.10;99.90
59703;DHT22;45570;48.782;8.332;2023-02-28T07:49:55;-0.10;99.90
59703;DHT22;45570;48.782;8.332;2023-02-28T07:52:24;0.00;99.90
59703;DHT22;45570;48.782;8.332;2023-02-28T07:54:52;-0.10;99.90
59703;DHT22;45570;48.782;8.332;2023-02-28T07:57:21;-0.10;99.90
59703;DHT22;45570;48.782;8.332;2023-02-28T07:59:50;-0.10;99.90
59703;DHT22;45570;48.782;8.332;2023-02-28T08:02:19;0.00;99.90
59703;DHT22;45570;48.782;8.332;2023-02-28T08:04:47;0.10;99.90
59703;DHT22;45570;48.782;8.332;2023-02-28T08:07:18;0.00;99.90
59703;DHT22;45570;48.782;8.332;2023-02-28T08:09:47;0.10;99.90
59703;DHT22;45570;48.782;8.332;2023-02-28T08:12:16;0.10;99.90
59703;DHT22;45570;48.782;8.332;2023-02-28T08:14:44;0.20;99.90
59703;DHT22;45570;48.782;8.332;2023-02-28T08:17:13;0.10;99.90
59703;DHT22;45570;48.782;8.332;2023-02-28T08:19:41;0.20;99.90
59703;DHT22;45570;48.782;8.332;2023-02-28T08:22:10;0.20;99.90
59703;DHT22;45570;48.782;8.332;2023-02-28T08:24:41;0.20;99.90
59703;DHT22;45570;48.782;8.332;2023-02-28T08:27:09;0.30;99.90
59703;DHT22;45570;48.782;8.332;2023-02-28T08:29:38;0.30;99.90
59703;DHT22;45570;48.782;8.332;2023-02-28T08:32:07;0.40;99.90
59703;DHT22;45570;48.782;8.332;2023-02-28T08:34:54;0.30;99.90
59703;DHT22;45570;48.782;8.332;2023-02-28T08:37:23;0.40;99.90
59703;DHT22;45570;48.782;8.332;2023-02-28T08:39:53;0.30;99.90
59703;DHT22;45570;48.782;8.332;2023-02-28T08:42:22;0.40;99.90
59703;DHT22;45570;48.782;8.332;2023-02-28T08:44:51;0.50;99.90
59703;DHT22;45570;48.782;8.332;2023-02-28T08:47:19;0.60;99.90
59703;DHT22;45570;48.782;8.332;2023-02-28T08:49:48;0.50;99.90
59703;DHT22;45570;48.782;8.332;2023-02-28T08:52:16;0.50;99.90
59703;DHT22;45570;48.782;8.332;2023-02-28T08:54:45;0.60;99.90
59703;DHT22;45570;48.782;8.332;2023-02-28T08:57:15;0.60;99.90
59703;DHT22;45570;48.782;8.332;2023-02-28T08:59:43;0.70;99.90
59703;DHT22;45570;48.782;8.332;2023-02-28T09:02:12;0.70;99.90
59703;DHT22;45570;48.782;8.332;2023-02-28T09:04:41;0.70;99.90
59703;DHT22;45570;48.782;8.332;2023-02-28T09:07:12;0.70;99.90
59703;DHT22;45570;48.782;8.332;2023-02-28T09:09:41;0.80;99.90
59703;DHT22;45570;48.782;8.332;2023-02-28T09:12:23;0.80;99.90
59703;DHT22;45570;48.782;8.332;2023-02-28T09:14:52;0.80;99.90
59703;DHT22;45570;48.782;8.332;2023-02-28T09:17:20;0.70;99.90
59703;DHT22;45570;48.782;8.332;2023-02-28T09:19:49;0.80;99.90
59703;DHT22;45570;48.782;8.332;2023-02-28T09:22:18;0.80;99.90
59703;DHT22;45570;48.782;8.332;2023-02-28T09:24:46;0.90;99.90
59703;DHT22;45570;48.782;8.332;2023-02-28T09:27:15;0.80;99.90
59703;DHT22;45570;48.782;8.332;2023-02-28T09:29:44;1.00;99.90
59703;DHT22;45570;48.782;8.332;2023-02-28T09:32:13;1.00;99.90
59703;DHT22;45570;48.782;8.332;2023-02-28T09:34:42;1.00;99.90
59703;DHT22;45570;48.782;8.332;2023-02-28T09:37:10;1.00;99.90
59703;DHT22;45570;48.782;8.332;2023-02-28T09:39:39;1.00;99.90
59703;DHT22;45570;48.782;8.332;2023-02-28T09:42:19;1.00;99.90
59703;DHT22;45570;48.782;8.332;2023-02-28T09:44:51;1.10;99.90
59703;DHT22;45570;48.782;8.332;2023-02-28T09:47:26;1.20;99.90
59703;DHT22;45570;48.782;8.332;2023-02-28T09:49:58;1.30;99.90
59703;DHT22;45570;48.782;8.332;2023-02-28T09:52:31;1.40;99.90
59703;DHT22;45570;48.782;8.332;2023-02-28T09:55:08;1.50;99.90
59703;DHT22;45570;48.782;8.332;2023-02-28T09:57:44;1.50;99.90
59703;DHT22;45570;48.782;8.332;2023-02-28T10:00:17;1.50;99.90
59703;DHT22;45570;48.782;8.332;2023-02-28T10:02:58;1.50;99.90
59703;DHT22;45570;48.782;8.332;2023-02-28T10:05:33;1.50;99.90
59703;DHT22;45570;48.782;8.332;2023-02-28T10:08:10;1.50;99.90
59703;DHT22;45570;48.782;8.332;2023-02-28T10:10:41;1.40;99.90
59703;DHT22;45570;48.782;8.332;2023-02-28T10:13:19;1.50;99.90
59703;DHT22;45570;48.782;8.332;2023-02-28T10:15:53;1.50;99.90
59703;DHT22;45570;48.782;8.332;2023-02-28T10:18:26;1.70;99.90
59703;DHT22;45570;48.782;8.332;2023-02-28T10:20:56;1.70;99.90
59703;DHT22;45570;48.782;8.332;2023-02-28T10:23:27;1.60;99.90
59703;DHT22;45570;48.782;8.332;2023-02-28T10:25:59;1.60;99.90
59703;DHT22;45570;48.782;8.332;2023-02-28T10:28:29;1.70;99.90
59703;DHT22;45570;48.782;8.332;2023-02-28T10:31:00;1.60;99.90
59703;DHT22;45570;48.782;8.332;2023-02-28T10:33:32;1.70;99.90
59703;DHT22;45570;48.782;8.332;2023-02-28T10:36:02;1.70;99.90
59703;DHT22;45570;48.782;8.332;2023-02-28T10:38:35;1.80;99.90
59703;DHT22;45570;48.782;8.332;2023-02-28T10:41:05;1.70;99.90
59703;DHT22;45570;48.782;8.332;2023-02-28T10:43:35;1.80;99.90
59703;DHT22;45570;48.782;8.332;2023-02-28T10:46:13;1.80;99.90
59703;DHT22;45570;48.782;8.332;2023-02-28T10:49:02;1.90;99.90
59703;DHT22;45570;48.782;8.332;2023-02-28T10:51:36;1.90;99.90
59703;DHT22;45570;48.782;8.332;2023-02-28T10:54:05;1.90;99.90
59703;DHT22;45570;48.782;8.332;2023-02-28T10:56:42;1.90;99.90
59703;DHT22;45570;48.782;8.332;2023-02-28T10:59:27;1.90;99.90
59703;DHT22;45570;48.782;8.332;2023-02-28T11:01:58;2.00;99.90
59703;DHT22;45570;48.782;8.332;2023-02-28T11:04:35;2.10;99.90
59703;DHT22;45570;48.782;8.332;2023-02-28T11:07:17;2.10;99.90
59703;DHT22;45570;48.782;8.332;2023-02-28T11:09:52;2.10;99.90
59703;DHT22;45570;48.782;8.332;2023-02-28T11:12:23;2.00;99.90
59703;DHT22;45570;48.782;8.332;2023-02-28T11:14:55;2.00;99.90
59703;DHT22;45570;48.782;8.332;2023-02-28T11:17:27;2.10;99.90
59703;DHT22;45570;48.782;8.332;2023-02-28T11:19:58;2.20;99.90
59703;DHT22;45570;48.782;8.332;2023-02-28T11:22:32;2.40;99.90
59703;DHT22;45570;48.782;8.332;2023-02-28T11:25:07;2.50;99.90
59703;DHT22;45570;48.782;8.332;2023-02-28T11:27:56;2.50;99.90
59703;DHT22;45570;48.782;8.332;2023-02-28T11:30:30;2.70;99.90
59703;DHT22;45570;48.782;8.332;2023-02-28T11:33:01;2.70;99.90
59703;DHT22;45570;48.782;8.332;2023-02-28T11:35:48;2.80;99.90
59703;DHT22;45570;48.782;8.332;2023-02-28T11:38:17;2.90;99.90
59703;DHT22;45570;48.782;8.332;2023-02-28T11:40:50;2.90;99.90
59703;DHT22;45570;48.782;8.332;2023-02-28T11:43:30;3.00;99.90
59703;DHT22;45570;48.782;8.332;2023-02-28T11:46:14;3.30;99.90
59703;DHT22;45570;48.782;8.332;2023-02-28T11:48:55;3.80;99.90
59703;DHT22;45570;48.782;8.332;2023-02-28T11:51:30;4.00;99.90
59703;DHT22;45570;48.782;8.332;2023-02-28T11:54:23;4.40;99.90
59703;DHT22;45570;48.782;8.332;2023-02-28T11:56:57;5.20;99.90
59703;DHT22;45570;48.782;8.332;2023-02-28T11:59:40;5.80;99.90
59703;DHT22;45570;48.782;8.332;2023-02-28T12:02:26;5.70;99.90
59703;DHT22;45570;48.782;8.332;2023-02-28T12:05:20;5.60;99.90
59703;DHT22;45570;48.782;8.332;2023-02-28T12:08:03;5.80;99.90
59703;DHT22;45570;48.782;8.332;2023-02-28T12:10:51;6.30;99.90
59703;DHT22;45570;48.782;8.332;2023-02-28T12:13:25;6.10;99.90
59703;DHT22;45570;48.782;8.332;2023-02-28T12:16:13;6.00;99.90
59703;DHT22;45570;48.782;8.332;2023-02-28T12:18:59;5.90;99.90
59703;DHT22;45570;48.782;8.332;2023-02-28T12:21:41;5.40;99.90
59703;DHT22;45570;48.782;8.332;2023-02-28T12:24:36;5.30;99.90
59703;DHT22;45570;48.782;8.332;2023-02-28T12:27:10;6.10;99.90
59703;DHT22;45570;48.782;8.332;2023-02-28T12:29:44;6.10;99.90
59703;DHT22;45570;48.782;8.332;2023-02-28T12:32:18;5.80;99.90
59703;DHT22;45570;48.782;8.332;2023-02-28T12:34:52;6.10;99.90
59703;DHT22;45570;48.782;8.332;2023-02-28T12:37:29;6.30;99.90
59703;DHT22;45570;48.782;8.332;2023-02-28T12:40:03;6.10;99.90
59703;DHT22;45570;48.782;8.332;2023-02-28T12:42:39;6.80;99.90
59703;DHT22;45570;48.782;8.332;2023-02-28T12:45:14;7.60;99.90
59703;DHT22;45570;48.782;8.332;2023-02-28T12:47:49;7.80;99.90
59703;DHT22;45570;48.782;8.332;2023-02-28T12:50:20;7.90;99.90
59703;DHT22;45570;48.782;8.332;2023-02-28T12:52:54;8.20;99.90
59703;DHT22;45570;48.782;8.332;2023-02-28T12:55:31;8.80;99.90
59703;DHT22;45570;48.782;8.332;2023-02-28T12:58:11;8.40;99.90
59703;DHT22;45570;48.782;8.332;2023-02-28T13:00:55;8.20;99.90
59703;DHT22;45570;48.782;8.332;2023-02-28T13:07:04;9.30;99.90
59703;DHT22;45570;48.782;8.332;2023-02-28T13:09:38;10.20;99.90
59703;DHT22;45570;48.782;8.332;2023-02-28T13:12:13;9.50;99.90
59703;DHT22;45570;48.782;8.332;2023-02-28T13:14:42;10.10;99.90
59703;DHT22;45570;48.782;8.332;2023-02-28T13:17:12;9.80;99.90
59703;DHT22;45570;48.782;8.332;2023-02-28T13:19:44;9.50;99.90
59703;DHT22;45570;48.782;8.332;2023-02-28T13:22:20;9.40;99.90
59703;DHT22;45570;48.782;8.332;2023-02-28T13:35:15;9.80;99.90
59703;DHT22;45570;48.782;8.332;2023-02-28T13:38:25;10.60;99.90
59703;DHT22;45570;48.782;8.332;2023-02-28T13:44:07;10.10;99.90
59703;DHT22;45570;48.782;8.332;2023-02-28T13:49:50;9.40;99.90
59703;DHT22;45570;48.782;8.332;2023-02-28T13:52:23;8.50;99.90
59703;DHT22;45570;48.782;8.332;2023-02-28T13:55:26;7.40;99.90
59703;DHT22;45570;48.782;8.332;2023-02-28T13:58:09;7.10;99.90
59703;DHT22;45570;48.782;8.332;2023-02-28T14:01:03;7.30;99.90
59703;DHT22;45570;48.782;8.332;2023-02-28T14:03:48;7.20;99.90
59703;DHT22;45570;48.782;8.332;2023-02-28T14:06:24;6.90;99.90
59703;DHT22;45570;48.782;8.332;2023-02-28T14:08:59;7.00;99.90
59703;DHT22;45570;48.782;8.332;2023-02-28T14:11:32;6.90;99.90
59703;DHT22;45570;48.782;8.332;2023-02-28T14:14:02;7.10;99.90
59703;DHT22;45570;48.782;8.332;2023-02-28T14:16:39;7.50;99.90
59703;DHT22;45570;48.782;8.332;2023-02-28T14:19:12;7.70;99.90
59703;DHT22;45570;48.782;8.332;2023-02-28T14:21:56;7.70;99.90
59703;DHT22;45570;48.782;8.332;2023-02-28T14:24:48;7.70;99.90
59703;DHT22;45570;48.782;8.332;2023-02-28T14:27:37;8.00;99.90
59703;DHT22;45570;48.782;8.332;2023-02-28T14:30:40;7.80;99.90
59703;DHT22;45570;48.782;8.332;2023-02-28T14:33:22;7.60;99.90
59703;DHT22;45570;48.782;8.332;2023-02-28T14:36:04;6.90;99.90
59703;DHT22;45570;48.782;8.332;2023-02-28T14:38:39;7.30;99.90
59703;DHT22;45570;48.782;8.332;2023-02-28T14:41:19;7.60;99.90
59703;DHT22;45570;48.782;8.332;2023-02-28T14:43:50;7.60;99.90
59703;DHT22;45570;48.782;8.332;2023-02-28T14:46:20;7.70;99.90
59703;DHT22;45570;48.782;8.332;2023-02-28T14:48:50;8.00;99.90
59703;DHT22;45570;48.782;8.332;2023-02-28T14:51:20;7.50;99.90
59703;DHT22;45570;48.782;8.332;2023-02-28T14:53:52;7.20;99.90
59703;DHT22;45570;48.782;8.332;2023-02-28T14:56:34;7.80;99.90
59703;DHT22;45570;48.782;8.332;2023-02-28T14:59:05;8.10;99.90
59703;DHT22;45570;48.782;8.332;2023-02-28T15:01:34;7.80;99.90
59703;DHT22;45570;48.782;8.332;2023-02-28T15:04:04;7.70;99.90
59703;DHT22;45570;48.782;8.332;2023-02-28T15:06:33;8.20;99.90
59703;DHT22;45570;48.782;8.332;2023-02-28T15:09:10;8.90;99.90
59703;DHT22;45570;48.782;8.332;2023-02-28T15:11:40;9.00;99.90
59703;DHT22;45570;48.782;8.332;2023-02-28T15:14:18;9.00;99.90
59703;DHT22;45570;48.782;8.332;2023-02-28T15:16:51;9.40;99.90
59703;DHT22;45570;48.782;8.332;2023-02-28T15:19:23;10.00;99.90
59703;DHT22;45570;48.782;8.332;2023-02-28T15:21:57;9.80;99.90
59703;DHT22;45570;48.782;8.332;2023-02-28T15:24:33;8.90;99.90
59703;DHT22;45570;48.782;8.332;2023-02-28T15:27:06;8.90;99.90
59703;DHT22;45570;48.782;8.332;2023-02-28T15:29:43;8.10;99.90
59703;DHT22;45570;48.782;8.332;2023-02-28T15:32:24;8.20;99.90
59703;DHT22;45570;48.782;8.332;2023-02-28T15:34:54;7.90;99.90
59703;DHT22;45570;48.782;8.332;2023-02-28T15:37:45;7.40;99.90
59703;DHT22;45570;48.782;8.332;2023-02-28T15:40:17;7.30;99.90
59703;DHT22;45570;48.782;8.332;2023-02-28T15:43:04;7.40;99.90
59703;DHT22;45570;48.782;8.332;2023-02-28T15:45:37;7.10;99.90
59703;DHT22;45570;48.782;8.332;2023-02-28T15:48:19;7.40;99.90
59703;DHT22;45570;48.782;8.332;2023-02-28T15:50:51;7.50;99.90
59703;DHT22;45570;48.782;8.332;2023-02-28T15:53:22;7.10;99.90
59703;DHT22;45570;48.782;8.332;2023-02-28T15:55:54;6.90;99.90
59703;DHT22;45570;48.782;8.332;2023-02-28T15:58:25;6.40;99.90
59703;DHT22;45570;48.782;8.332;2023-02-28T16:01:20;6.10;99.90
59703;DHT22;45570;48.782;8.332;2023-02-28T16:03:51;5.90;99.90
59703;DHT22;45570;48.782;8.332;2023-02-28T16:06:38;5.70;99.90
59703;DHT22;45570;48.782;8.332;2023-02-28T16:09:11;5.70;99.90
59703;DHT22;45570;48.782;8.332;2023-02-28T16:11:43;5.40;99.90
59703;DHT22;45570;48.782;8.332;2023-02-28T16:14:17;5.50;99.90
59703;DHT22;45570;48.782;8.332;2023-02-28T16:16:48;5.40;99.90
59703;DHT22;45570;48.782;8.332;2023-02-28T16:19:17;5.30;99.90
59703;DHT22;45570;48.782;8.332;2023-02-28T16:21:46;5.20;99.90
59703;DHT22;45570;48.782;8.332;2023-02-28T16:24:15;5.10;99.90
59703;DHT22;45570;48.782;8.332;2023-02-28T16:26:47;4.90;99.90
59703;DHT22;45570;48.782;8.332;2023-02-28T16:29:24;5.00;99.90
59703;DHT22;45570;48.782;8.332;2023-02-28T16:31:53;5.00;99.90
59703;DHT22;45570;48.782;8.332;2023-02-28T16:34:22;4.90;99.90
59703;DHT22;45570;48.782;8.332;2023-02-28T16:36:51;4.80;99.90
59703;DHT22;45570;48.782;8.332;2023-02-28T16:39:19;4.80;99.90
59703;DHT22;45570;48.782;8.332;2023-02-28T16:41:50;4.70;99.90
59703;DHT22;45570;48.782;8.332;2023-02-28T16:44:27;4.50;99.90